Time;durP1;ratioP1;P1;durP2;ratioP2;P2;SDS_P1;SDS_P2;PMS_P1;PMS_P2;Temp;Humidity;BMP_temperature;BMP_pressure;BME280_temperature;BME280_humidity;BME280_pressure;Samples;Min_cycle;Max_cycle;Signal;HPM_P1;HPM_P2
2022/03/17 00:01:21;;;;;;;27.60;12.90;;;10.90;99.90;;;;;;6127305;23;20081;-77
2022/03/17 00:03:46;;;;;;;24.58;12.82;;;10.90;99.90;;;;;;6125953;23;20022;-80
2022/03/17 00:06:13;;;;;;;27.70;13.30;;;10.90;99.90;;;;;;6125672;23;20471;-80
2022/03/17 00:08:39;;;;;;;30.38;13.80;;;10.90;99.90;;;;;;6125506;23;20076;-80
2022/03/17 00:11:05;;;;;;;28.35;15.27;;;10.90;99.90;;;;;;6124924;23;20014;-80
2022/03/17 00:13:31;;;;;;;27.70;13.15;;;10.90;99.90;;;;;;6124924;23;20018;-80
2022/03/17 00:15:57;;;;;;;20.27;11.98;;;10.80;99.90;;;;;;6125442;23;20486;-80
2022/03/17 00:18:23;;;;;;;22.25;13.45;;;10.80;99.90;;;;;;6125831;23;20358;-80
2022/03/17 00:20:48;;;;;;;28.00;13.82;;;10.80;99.90;;;;;;6125166;23;20347;-80
2022/03/17 00:23:14;;;;;;;26.83;13.45;;;10.80;99.90;;;;;;6125756;23;20045;-80
2022/03/17 00:25:40;;;;;;;30.08;13.77;;;10.80;99.90;;;;;;6100609;23;20511;-80
2022/03/17 00:28:05;;;;;;;23.90;12.38;;;10.80;99.90;;;;;;6099720;23;20010;-80
2022/03/17 00:30:31;;;;;;;25.30;12.75;;;10.80;99.90;;;;;;6123661;23;20021;-80
2022/03/17 00:32:57;;;;;;;27.95;14.15;;;10.70;99.90;;;;;;6125481;23;20325;-79
2022/03/17 00:35:42;;;;;;;25.55;12.25;;;10.80;99.90;;;;;;6127313;23;20057;-79
2022/03/17 00:38:16;;;;;;;26.00;13.07;;;10.70;99.90;;;;;;6103621;23;20010;-79
2022/03/17 00:40:44;;;;;;;24.80;13.23;;;10.70;99.90;;;;;;6126465;23;20009;-80
2022/03/17 00:43:12;;;;;;;24.33;12.40;;;10.70;99.90;;;;;;6126754;23;20092;-80
2022/03/17 00:45:39;;;;;;;27.15;12.63;;;10.70;99.90;;;;;;6126298;23;20014;-79
2022/03/17 00:48:05;;;;;;;25.17;13.63;;;10.70;99.90;;;;;;6126497;23;20014;-80
2022/03/17 00:50:31;;;;;;;28.38;13.93;;;10.70;99.90;;;;;;6126318;23;20061;-79
2022/03/17 00:52:57;;;;;;;28.83;13.18;;;10.70;99.90;;;;;;6123569;23;20017;-79
2022/03/17 00:55:23;;;;;;;26.30;13.20;;;10.70;99.90;;;;;;6122857;23;20033;-78
2022/03/17 00:57:49;;;;;;;27.65;13.40;;;10.70;99.90;;;;;;6123367;23;20020;-78
2022/03/17 01:00:16;;;;;;;29.58;13.80;;;10.70;99.90;;;;;;6125142;23;20014;-79
2022/03/17 01:02:43;;;;;;;27.90;14.02;;;10.70;99.90;;;;;;6126065;23;20089;-79
2022/03/17 01:05:10;;;;;;;23.17;12.55;;;10.60;99.90;;;;;;6125957;23;20358;-79
2022/03/17 01:07:37;;;;;;;26.33;13.65;;;10.60;99.90;;;;;;6101643;23;20006;-79
2022/03/17 01:10:07;;;;;;;24.02;14.05;;;10.60;99.90;;;;;;6125120;23;20024;-79
2022/03/17 01:12:33;;;;;;;27.63;12.45;;;10.60;99.90;;;;;;6124974;23;20013;-79
2022/03/17 01:14:59;;;;;;;24.90;12.63;;;10.60;99.90;;;;;;6101253;23;20481;-80
2022/03/17 01:17:25;;;;;;;28.23;14.35;;;10.70;99.90;;;;;;6124088;23;20014;-80
2022/03/17 01:19:51;;;;;;;28.08;12.65;;;10.70;99.90;;;;;;6124174;23;20013;-80
2022/03/17 01:22:16;;;;;;;23.73;13.32;;;10.70;99.90;;;;;;6125588;23;20033;-80
2022/03/17 01:24:42;;;;;;;25.58;13.80;;;10.60;99.90;;;;;;6124815;23;20432;-80
2022/03/17 01:27:08;;;;;;;28.05;14.27;;;10.60;99.90;;;;;;6124691;23;20025;-80
2022/03/17 01:29:34;;;;;;;27.85;13.75;;;10.70;99.90;;;;;;6124282;23;20014;-80
2022/03/17 01:32:00;;;;;;;25.55;13.35;;;10.70;99.90;;;;;;6126135;23;20006;-79
2022/03/17 01:34:25;;;;;;;26.30;13.15;;;10.70;99.90;;;;;;6126528;23;20049;-80
2022/03/17 01:36:51;;;;;;;23.67;12.50;;;10.70;99.90;;;;;;6126543;23;20089;-79
2022/03/17 01:39:16;;;;;;;23.30;13.27;;;10.70;99.90;;;;;;6150767;23;20018;-79
2022/03/17 01:41:42;;;;;;;22.70;12.25;;;10.70;99.90;;;;;;6129068;23;20018;-80
2022/03/17 01:44:08;;;;;;;28.33;13.73;;;10.70;99.90;;;;;;6129079;23;20018;-80
2022/03/17 01:47:26;;;;;;;31.58;13.70;;;10.60;99.90;;;;;;6128518;23;20021;-80
2022/03/17 01:49:20;;;;;;;30.98;14.52;;;10.60;99.90;;;;;;6127992;23;20143;-80
2022/03/17 01:51:48;;;;;;;28.42;14.93;;;10.60;99.90;;;;;;6127248;23;20046;-79
2022/03/17 01:54:15;;;;;;;29.27;14.30;;;10.50;99.90;;;;;;6104936;23;20017;-80
2022/03/17 01:56:42;;;;;;;29.63;14.90;;;10.40;99.90;;;;;;6129163;23;20046;-80
2022/03/17 01:59:07;;;;;;;27.02;14.93;;;10.40;99.90;;;;;;6129952;23;20018;-79
2022/03/17 02:01:33;;;;;;;29.05;14.45;;;10.30;99.90;;;;;;6128065;23;20024;-80
2022/03/17 02:03:59;;;;;;;29.52;14.05;;;10.30;99.90;;;;;;6128995;23;20018;-80
2022/03/17 02:06:25;;;;;;;26.00;13.57;;;10.20;99.90;;;;;;6129809;23;20017;-80
2022/03/17 02:08:51;;;;;;;26.02;13.23;;;10.20;99.90;;;;;;6104570;23;20631;-80
2022/03/17 02:14:01;;;;;;;26.67;14.43;;;10.20;99.90;;;;;;6129937;23;20478;-80
2022/03/17 02:16:30;;;;;;;27.25;14.73;;;10.20;99.90;;;;;;6129981;23;20045;-80
2022/03/17 02:18:56;;;;;;;36.40;15.68;;;10.20;99.90;;;;;;6129013;23;20024;-80
2022/03/17 02:21:21;;;;;;;27.50;14.25;;;10.20;99.90;;;;;;6127658;23;20053;-80
2022/03/17 02:26:31;;;;;;;27.55;14.43;;;10.20;99.90;;;;;;6129087;23;20052;-80
2022/03/17 02:28:58;;;;;;;28.15;15.95;;;10.20;99.90;;;;;;6128446;23;20018;-80
2022/03/17 02:31:24;;;;;;;25.80;15.05;;;10.20;99.90;;;;;;6128533;23;20020;-80
2022/03/17 02:33:51;;;;;;;29.95;15.25;;;10.10;99.90;;;;;;6128648;23;20400;-79
2022/03/17 02:36:18;;;;;;;29.83;14.63;;;10.20;99.90;;;;;;6104780;23;20102;-81
2022/03/17 02:38:44;;;;;;;30.52;15.45;;;10.20;99.90;;;;;;6128246;23;20014;-80
2022/03/17 02:41:10;;;;;;;31.88;15.57;;;10.10;99.90;;;;;;6128679;23;20144;-80
2022/03/17 02:43:37;;;;;;;30.58;14.63;;;10.20;99.90;;;;;;6129816;23;20013;-79
2022/03/17 02:46:03;;;;;;;28.98;15.55;;;10.20;99.90;;;;;;6129366;23;20009;-79
2022/03/17 02:48:28;;;;;;;33.03;16.83;;;10.20;99.90;;;;;;6129903;23;20010;-80
2022/03/17 02:50:54;;;;;;;31.00;15.73;;;10.20;99.90;;;;;;6128758;23;20045;-80
2022/03/17 02:53:20;;;;;;;31.52;15.88;;;10.20;99.90;;;;;;6130341;23;20092;-80
2022/03/17 02:55:45;;;;;;;31.70;15.93;;;10.30;99.90;;;;;;6103780;23;20014;-79
2022/03/17 02:58:12;;;;;;;29.17;15.43;;;10.30;99.90;;;;;;6129032;23;20010;-80
2022/03/17 03:00:38;;;;;;;28.35;15.38;;;10.30;99.90;;;;;;6128406;23;20584;-80
2022/03/17 03:03:06;;;;;;;31.98;16.90;;;10.30;99.90;;;;;;6129168;23;20526;-80
2022/03/17 03:05:31;;;;;;;28.13;14.95;;;10.30;99.90;;;;;;6126158;23;20682;-77
2022/03/17 03:07:57;;;;;;;30.80;15.75;;;10.30;99.90;;;;;;6126478;23;20041;-80
2022/03/17 03:10:23;;;;;;;31.35;15.77;;;10.30;99.90;;;;;;6135408;23;20022;-77
2022/03/17 03:12:48;;;;;;;25.70;15.27;;;10.30;99.90;;;;;;6124112;23;20014;-77
2022/03/17 03:15:14;;;;;;;27.63;15.10;;;10.30;99.90;;;;;;6124502;23;20017;-77
2022/03/17 03:17:40;;;;;;;28.13;16.27;;;10.40;99.90;;;;;;6128903;23;20097;-77
2022/03/17 03:20:07;;;;;;;32.75;16.63;;;10.40;99.90;;;;;;6124851;23;20022;-77
2022/03/17 03:22:39;;;;;;;27.77;15.82;;;10.40;99.90;;;;;;6125099;23;20010;-77
2022/03/17 03:25:05;;;;;;;;;;;10.40;99.90;;;;;;6124847;23;20081;-77
2022/03/17 03:27:30;;;;;;;30.67;16.13;;;10.50;99.90;;;;;;6124762;23;19920;-77
2022/03/17 03:29:58;;;;;;;32.33;15.30;;;10.40;99.90;;;;;;6125237;23;20014;-77
2022/03/17 03:32:25;;;;;;;31.25;16.02;;;10.50;99.90;;;;;;6123976;23;20041;-77
2022/03/17 03:34:51;;;;;;;28.40;16.33;;;10.40;99.90;;;;;;6123931;23;20451;-77
2022/03/17 03:37:23;;;;;;;30.38;16.00;;;10.50;99.90;;;;;;6124154;23;20089;-77
2022/03/17 03:39:58;;;;;;;32.53;16.63;;;10.50;99.90;;;;;;6124795;23;20089;-77
2022/03/17 03:42:25;;;;;;;33.53;17.25;;;10.50;99.90;;;;;;6123593;23;20022;-76
2022/03/17 03:44:51;;;;;;;36.60;18.20;;;10.60;99.90;;;;;;6124981;23;20313;-77
2022/03/17 03:47:17;;;;;;;31.08;16.80;;;10.60;99.90;;;;;;6123541;23;20021;-76
2022/03/17 03:49:44;;;;;;;36.40;17.30;;;10.60;99.90;;;;;;6122983;23;20401;-77
2022/03/17 03:52:13;;;;;;;31.45;17.35;;;10.60;99.90;;;;;;6125620;23;20020;-77
2022/03/17 03:54:39;;;;;;;33.65;18.15;;;10.70;99.90;;;;;;6124098;23;20028;-77
2022/03/17 03:57:05;;;;;;;31.02;17.15;;;10.70;99.90;;;;;;6123850;23;20041;-77
2022/03/17 03:59:31;;;;;;;35.13;18.20;;;10.70;99.90;;;;;;6123718;23;20129;-77
2022/03/17 04:02:03;;;;;;;33.42;18.65;;;10.60;99.90;;;;;;6123884;23;20099;-77
2022/03/17 04:04:29;;;;;;;37.17;16.70;;;10.60;99.90;;;;;;6125779;23;20100;-77
2022/03/17 04:06:58;;;;;;;34.42;17.40;;;10.60;99.90;;;;;;6126958;23;20014;-79
2022/03/17 04:09:27;;;;;;;34.60;18.23;;;10.60;99.90;;;;;;6124636;23;20459;-80
2022/03/17 04:11:52;;;;;;;36.13;18.05;;;10.60;99.90;;;;;;6125614;23;20065;-79
2022/03/17 04:14:19;;;;;;;34.97;17.63;;;10.60;99.90;;;;;;6124243;23;20021;-79
2022/03/17 04:16:46;;;;;;;43.38;21.17;;;10.60;99.90;;;;;;6124570;23;20097;-79
2022/03/17 04:19:15;;;;;;;42.20;20.48;;;10.60;99.90;;;;;;6124210;23;20466;-80
2022/03/17 04:21:41;;;;;;;37.35;18.48;;;10.60;99.90;;;;;;6124107;23;20351;-79
2022/03/17 04:24:06;;;;;;;36.92;17.50;;;10.50;99.90;;;;;;6123819;23;20018;-77
2022/03/17 04:26:32;;;;;;;42.35;19.33;;;10.50;99.90;;;;;;6123562;23;20014;-78
2022/03/17 04:28:57;;;;;;;36.42;17.38;;;10.50;99.90;;;;;;6123196;23;20097;-78
2022/03/17 04:31:23;;;;;;;38.25;18.20;;;10.40;99.90;;;;;;6126080;23;20025;-79
2022/03/17 04:33:50;;;;;;;44.22;20.52;;;10.40;99.90;;;;;;6125085;23;20021;-78
2022/03/17 04:36:16;;;;;;;41.67;20.70;;;10.30;99.90;;;;;;6124685;23;20014;-78
2022/03/17 04:38:42;;;;;;;39.75;20.88;;;10.20;99.90;;;;;;6124203;23;20022;-79
2022/03/17 04:41:10;;;;;;;42.70;21.40;;;10.20;99.90;;;;;;6124249;23;20040;-79
2022/03/17 04:43:36;;;;;;;43.97;21.20;;;10.10;99.90;;;;;;6126892;23;20018;-80
2022/03/17 04:46:02;;;;;;;49.05;20.77;;;10.00;99.90;;;;;;6101739;23;20010;-79
2022/03/17 04:48:29;;;;;;;43.53;20.10;;;9.90;99.90;;;;;;6147894;23;20493;-78
2022/03/17 04:50:54;;;;;;;46.08;21.23;;;9.90;99.90;;;;;;6161831;23;20009;-78
2022/03/17 04:53:32;;;;;;;44.30;20.83;;;9.90;99.90;;;;;;6134606;23;20040;-79
2022/03/17 04:56:04;;;;;;;44.08;21.65;;;9.90;99.90;;;;;;6160089;23;20044;-78
2022/03/17 04:58:32;;;;;;;41.03;20.13;;;9.80;99.90;;;;;;6138789;23;20012;-78
2022/03/17 05:01:03;;;;;;;29.73;13.85;;;9.80;99.90;;;;;;6137590;23;20072;-78
2022/03/17 05:03:28;;;;;;;12.07;5.60;;;9.70;99.90;;;;;;6139925;23;20008;-78
2022/03/17 05:05:54;;;;;;;10.02;5.07;;;9.70;99.90;;;;;;6160247;23;20009;-79
2022/03/17 05:08:21;;;;;;;14.60;5.90;;;9.50;99.90;;;;;;6137628;23;20017;-78
2022/03/17 05:10:47;;;;;;;5.47;3.90;;;9.30;99.90;;;;;;6160363;23;20013;-78
2022/03/17 05:13:14;;;;;;;7.68;4.20;;;9.20;99.90;;;;;;6159845;23;20032;-79
2022/03/17 05:15:40;;;;;;;9.38;4.97;;;9.00;99.90;;;;;;6187591;23;20096;-78
2022/03/17 05:18:07;;;;;;;9.82;5.30;;;8.90;99.90;;;;;;6163221;23;20040;-78
2022/03/17 05:20:38;;;;;;;7.82;5.00;;;8.80;99.90;;;;;;6161604;23;20079;-79
2022/03/17 05:23:12;;;;;;;9.07;4.47;;;8.70;99.90;;;;;;6161330;23;20021;-79
2022/03/17 05:25:39;;;;;;;6.45;4.07;;;8.60;99.90;;;;;;6162679;23;20096;-80
2022/03/17 05:28:06;;;;;;;6.95;4.63;;;8.60;99.90;;;;;;6163252;23;20037;-78
2022/03/17 05:30:32;;;;;;;7.78;5.38;;;8.50;99.90;;;;;;6161229;23;20015;-78
2022/03/17 05:32:58;;;;;;;8.40;5.00;;;8.40;99.90;;;;;;6159652;23;20024;-78
2022/03/17 05:35:24;;;;;;;8.75;4.60;;;8.40;99.90;;;;;;6158855;23;20017;-78
2022/03/17 05:37:50;;;;;;;8.88;4.72;;;8.30;99.90;;;;;;6158383;23;20076;-79
2022/03/17 05:40:17;;;;;;;8.98;4.85;;;8.30;99.90;;;;;;6160936;23;20009;-80
2022/03/17 05:42:49;;;;;;;11.90;6.15;;;8.30;99.90;;;;;;6162106;23;20025;-79
2022/03/17 05:45:16;;;;;;;10.63;5.88;;;8.20;99.90;;;;;;6161170;23;20021;-80
2022/03/17 05:47:44;;;;;;;10.13;5.90;;;8.20;99.90;;;;;;6157368;23;20393;-77
2022/03/17 05:50:13;;;;;;;11.20;5.85;;;8.20;99.90;;;;;;6160032;23;20454;-80
2022/03/17 05:52:39;;;;;;;9.82;5.85;;;8.20;99.90;;;;;;6137224;23;20481;-80
2022/03/17 05:55:06;;;;;;;9.27;5.55;;;8.10;99.90;;;;;;6158655;23;20083;-80
2022/03/17 05:57:33;;;;;;;13.52;5.65;;;8.10;99.90;;;;;;6158373;23;20354;-77
2022/03/17 05:59:59;;;;;;;10.48;5.85;;;8.10;99.90;;;;;;6156470;23;20020;-78
2022/03/17 06:02:24;;;;;;;8.95;5.05;;;8.10;99.90;;;;;;6156851;23;20009;-77
2022/03/17 06:04:50;;;;;;;14.93;6.60;;;8.10;99.90;;;;;;6156878;23;20021;-77
2022/03/17 06:07:15;;;;;;;11.40;6.00;;;8.10;99.90;;;;;;6162216;23;20017;-79
2022/03/17 06:09:41;;;;;;;14.05;6.40;;;8.10;99.90;;;;;;6192680;23;20073;-79
2022/03/17 06:12:08;;;;;;;12.95;6.10;;;8.00;99.90;;;;;;6168077;23;20061;-80
2022/03/17 06:14:34;;;;;;;11.77;5.55;;;8.00;99.90;;;;;;6163538;23;20087;-78
2022/03/17 06:17:00;;;;;;;11.50;6.13;;;8.10;99.90;;;;;;6159129;23;20025;-77
2022/03/17 06:19:26;;;;;;;9.25;4.72;;;8.00;99.90;;;;;;6160414;23;20498;-79
2022/03/17 06:21:52;;;;;;;16.08;5.40;;;8.00;99.90;;;;;;6169407;23;20017;-79
2022/03/17 06:24:17;;;;;;;13.02;5.82;;;8.00;99.90;;;;;;6174130;23;20557;-79
2022/03/17 06:26:43;;;;;;;13.20;4.47;;;8.00;99.90;;;;;;6175288;23;20040;-79
2022/03/17 06:29:08;;;;;;;8.02;4.43;;;8.00;99.90;;;;;;6202734;23;20009;-79
2022/03/17 06:31:36;;;;;;;9.60;3.67;;;8.00;99.90;;;;;;6165281;23;20063;-77
2022/03/17 06:34:02;;;;;;;11.05;4.82;;;8.00;99.90;;;;;;6162575;23;20017;-79
2022/03/17 06:36:28;;;;;;;11.40;4.28;;;8.00;99.90;;;;;;6166081;23;20024;-79
2022/03/17 06:38:53;;;;;;;9.45;4.40;;;8.00;99.90;;;;;;6165920;23;20406;-79
2022/03/17 06:41:19;;;;;;;11.60;5.38;;;8.00;99.90;;;;;;6142014;23;20017;-79
2022/03/17 06:43:44;;;;;;;16.67;5.00;;;8.00;99.90;;;;;;6167381;23;20106;-79
2022/03/17 06:46:10;;;;;;;12.15;3.63;;;8.00;99.90;;;;;;6142905;23;20013;-80
2022/03/17 06:48:36;;;;;;;8.98;3.30;;;8.00;99.90;;;;;;6165651;23;20013;-80
2022/03/17 06:51:01;;;;;;;11.35;4.05;;;8.00;99.90;;;;;;6162037;23;20039;-80
2022/03/17 06:53:27;;;;;;;4.63;2.28;;;8.00;99.90;;;;;;6164007;23;20019;-79
2022/03/17 06:55:53;;;;;;;8.80;2.67;;;8.00;99.90;;;;;;6139917;23;20430;-79
2022/03/17 06:58:19;;;;;;;6.63;2.10;;;8.00;99.90;;;;;;6163822;23;20013;-80
2022/03/17 07:00:45;;;;;;;9.70;2.15;;;7.90;99.90;;;;;;6164637;23;20032;-80
2022/03/17 07:03:10;;;;;;;8.40;2.17;;;8.00;99.90;;;;;;6136486;23;20016;-82
2022/03/17 07:05:36;;;;;;;12.50;2.13;;;8.00;99.90;;;;;;6137327;23;20395;-81
2022/03/17 07:08:01;;;;;;;14.30;2.50;;;8.10;99.90;;;;;;6138712;23;20017;-81
2022/03/17 07:10:27;;;;;;;7.32;1.80;;;8.10;99.90;;;;;;6138859;23;20040;-81
2022/03/17 07:12:53;;;;;;;9.32;2.33;;;8.10;99.90;;;;;;6163923;23;20446;-81
2022/03/17 07:15:19;;;;;;;7.97;2.60;;;8.10;99.90;;;;;;6162479;23;20009;-81
2022/03/17 07:17:45;;;;;;;13.35;2.55;;;8.10;99.90;;;;;;6138017;23;20337;-81
2022/03/17 07:20:15;;;;;;;11.13;3.00;;;8.00;99.90;;;;;;6161373;23;20027;-82
2022/03/17 07:22:43;;;;;;;16.48;2.95;;;8.10;99.90;;;;;;6137605;23;20442;-82
2022/03/17 07:25:10;;;;;;;8.23;2.55;;;8.10;99.90;;;;;;6163858;23;20017;-81
2022/03/17 07:27:41;;;;;;;8.32;2.20;;;8.10;99.90;;;;;;6161917;23;20013;-81
2022/03/17 07:30:08;;;;;;;12.80;1.95;;;8.10;99.90;;;;;;6161090;23;20032;-81
2022/03/17 07:32:34;;;;;;;6.15;1.85;;;8.00;99.90;;;;;;6136739;23;20021;-81
2022/03/17 07:34:59;;;;;;;9.18;2.17;;;8.00;99.90;;;;;;6161094;23;20132;-82
2022/03/17 07:37:25;;;;;;;6.45;1.50;;;8.00;99.90;;;;;;6186867;23;20037;-82
2022/03/17 07:39:50;;;;;;;15.50;2.38;;;8.00;99.90;;;;;;6136027;23;20068;-81
2022/03/17 07:42:16;;;;;;;12.07;1.77;;;8.00;99.90;;;;;;6161399;23;20083;-82
2022/03/17 07:44:42;;;;;;;10.32;1.98;;;8.10;99.90;;;;;;6162429;23;20013;-82
2022/03/17 07:47:08;;;;;;;5.95;1.83;;;8.10;99.90;;;;;;6162800;23;20087;-82
2022/03/17 07:49:37;;;;;;;9.95;2.25;;;8.10;99.90;;;;;;6162634;23;20013;-82
2022/03/17 07:52:04;;;;;;;7.70;1.33;;;8.10;99.90;;;;;;6163036;23;20005;-82
2022/03/17 07:54:30;;;;;;;10.25;2.33;;;8.10;99.90;;;;;;6137463;23;20545;-82
2022/03/17 07:56:56;;;;;;;6.63;1.90;;;8.20;99.90;;;;;;6162915;23;20016;-82
2022/03/17 07:59:23;;;;;;;14.23;2.13;;;8.20;99.90;;;;;;6138767;23;20049;-82
2022/03/17 08:01:49;;;;;;;9.68;1.75;;;8.20;99.90;;;;;;6161862;23;20009;-82
2022/03/17 08:04:15;;;;;;;4.20;1.13;;;8.20;99.90;;;;;;6162220;23;20523;-82
2022/03/17 08:06:41;;;;;;;7.35;1.33;;;8.10;99.90;;;;;;6162922;23;20013;-82
2022/03/17 08:09:07;;;;;;;9.77;2.25;;;8.10;99.90;;;;;;6162177;23;20013;-82
2022/03/17 08:11:32;;;;;;;10.73;1.90;;;8.10;99.90;;;;;;6161295;23;20020;-82
2022/03/17 08:13:58;;;;;;;9.52;1.92;;;8.00;99.90;;;;;;6159986;23;20017;-81
2022/03/17 08:16:24;;;;;;;9.63;1.60;;;8.10;99.90;;;;;;6161979;23;20017;-83
2022/03/17 08:18:49;;;;;;;22.52;1.83;;;8.00;99.90;;;;;;6161644;23;20342;-82
2022/03/17 08:21:16;;;;;;;10.35;1.92;;;8.00;99.90;;;;;;6160964;23;20021;-82
2022/03/17 08:23:42;;;;;;;22.05;4.20;;;8.00;99.90;;;;;;6160624;23;20020;-82
2022/03/17 08:26:08;;;;;;;9.75;2.03;;;8.00;99.90;;;;;;6161174;23;20009;-81
2022/03/17 08:28:34;;;;;;;10.52;1.75;;;8.00;99.90;;;;;;6160675;23;20024;-82
2022/03/17 08:30:59;;;;;;;9.77;1.80;;;7.90;99.90;;;;;;6160338;23;20016;-82
2022/03/17 08:33:25;;;;;;;14.32;1.77;;;8.00;99.90;;;;;;6160204;23;20450;-82
2022/03/17 08:35:52;;;;;;;11.82;1.95;;;7.90;99.90;;;;;;6160470;23;20467;-82
2022/03/17 08:38:18;;;;;;;10.80;1.70;;;7.90;99.90;;;;;;6160613;23;20013;-82
2022/03/17 08:40:43;;;;;;;9.60;1.88;;;7.90;99.90;;;;;;6136303;23;20024;-82
2022/03/17 08:43:11;;;;;;;9.10;1.40;;;7.90;99.90;;;;;;6160544;23;20020;-81
2022/03/17 08:51:07;;;;;;;7.18;1.83;;;8.00;99.90;;;;;;6160789;23;20116;-82
2022/03/17 08:53:32;;;;;;;7.80;1.23;;;8.00;99.90;;;;;;6160695;23;20446;-81
2022/03/17 08:56:01;;;;;;;10.32;1.38;;;8.00;99.90;;;;;;6161987;23;20017;-81
2022/03/17 08:58:28;;;;;;;10.63;1.95;;;8.00;99.90;;;;;;6160734;23;20088;-81
2022/03/17 09:00:54;;;;;;;11.98;1.20;;;8.00;99.90;;;;;;6160804;23;20545;-81
2022/03/17 09:03:19;;;;;;;11.40;3.05;;;8.10;99.90;;;;;;6162739;23;20009;-82
2022/03/17 09:05:45;;;;;;;5.88;1.85;;;8.10;99.90;;;;;;6136098;23;20383;-82
2022/03/17 09:08:10;;;;;;;10.05;1.55;;;8.10;99.90;;;;;;6137470;23;20005;-81
2022/03/17 09:10:38;;;;;;;8.23;1.65;;;8.20;99.90;;;;;;6161443;23;20009;-82
2022/03/17 09:13:10;;;;;;;18.10;2.25;;;8.30;99.90;;;;;;6158786;23;20067;-82
2022/03/17 09:15:38;;;;;;;9.68;1.48;;;8.50;99.90;;;;;;6161461;23;20015;-81
2022/03/17 09:18:06;;;;;;;8.43;1.88;;;8.70;99.90;;;;;;6136927;23;20122;-81
2022/03/17 09:20:32;;;;;;;6.70;2.08;;;8.80;99.90;;;;;;6159646;23;20370;-82
2022/03/17 09:22:57;;;;;;;4.47;1.70;;;8.90;99.90;;;;;;6158960;23;20055;-83
2022/03/17 09:25:28;;;;;;;10.68;2.85;;;8.90;99.90;;;;;;6158847;23;20055;-82
2022/03/17 09:27:54;;;;;;;8.27;1.50;;;8.90;99.90;;;;;;6160245;23;20328;-81
2022/03/17 09:30:20;;;;;;;7.93;1.30;;;8.90;99.90;;;;;;6159832;23;20010;-81
2022/03/17 09:32:46;;;;;;;8.18;1.33;;;8.90;99.90;;;;;;6159946;23;20020;-81
2022/03/17 09:35:12;;;;;;;5.45;1.25;;;8.80;99.90;;;;;;6134393;23;20013;-82
2022/03/17 09:37:39;;;;;;;12.00;1.98;;;8.80;99.90;;;;;;6159633;23;20013;-82
2022/03/17 09:40:07;;;;;;;6.47;1.48;;;8.80;99.90;;;;;;6158565;23;20020;-83
2022/03/17 09:42:34;;;;;;;12.15;1.55;;;8.70;99.90;;;;;;6159404;23;20021;-81
2022/03/17 09:45:00;;;;;;;13.35;1.73;;;8.70;99.90;;;;;;6159411;23;20049;-81
2022/03/17 09:47:29;;;;;;;9.18;1.83;;;8.70;99.90;;;;;;6159412;23;20020;-81
2022/03/17 09:49:56;;;;;;;8.30;1.63;;;8.60;99.90;;;;;;6159792;23;20020;-80
2022/03/17 09:52:22;;;;;;;11.65;1.50;;;8.60;99.90;;;;;;6135993;23;20020;-81
2022/03/17 09:54:51;;;;;;;10.98;1.48;;;8.60;99.90;;;;;;6159695;23;20017;-81
2022/03/17 09:57:17;;;;;;;9.38;1.58;;;8.60;99.90;;;;;;6160283;23;20122;-81
2022/03/17 09:59:53;;;;;;;13.10;1.40;;;8.60;99.90;;;;;;6160736;23;20022;-81
2022/03/17 10:02:19;;;;;;;9.57;1.80;;;8.80;99.90;;;;;;6162148;23;20024;-81
2022/03/17 10:04:47;;;;;;;6.70;1.05;;;8.90;99.90;;;;;;6163374;23;20009;-81
2022/03/17 10:07:14;;;;;;;7.80;1.67;;;9.00;99.90;;;;;;6162523;23;20027;-81
2022/03/17 10:09:40;;;;;;;10.38;1.33;;;9.10;99.90;;;;;;6138316;23;20024;-81
2022/03/17 10:12:11;;;;;;;12.55;2.00;;;9.10;99.90;;;;;;6163169;23;20013;-81
2022/03/17 10:14:40;;;;;;;10.55;1.50;;;9.20;99.90;;;;;;6163764;23;20016;-82
2022/03/17 10:17:28;;;;;;;5.90;1.10;;;9.30;99.90;;;;;;6162647;23;20091;-81
2022/03/17 10:20:10;;;;;;;5.22;1.20;;;9.40;99.90;;;;;;6162789;23;20024;-82
2022/03/17 10:22:43;;;;;;;;;;;9.70;99.90;;;;;;6162902;23;20111;-82
2022/03/17 10:25:08;;;;;;;;;;;10.20;99.90;;;;;;6162991;23;19998;-82
2022/03/17 10:27:40;;;;;;;8.85;2.20;;;10.70;99.90;;;;;;6162474;23;19996;-81
2022/03/17 10:30:07;;;;;;;5.80;1.85;;;10.90;99.90;;;;;;6162352;23;20013;-82
2022/03/17 10:32:33;;;;;;;5.85;1.25;;;11.10;99.90;;;;;;6137773;23;20013;-82
2022/03/17 10:34:59;;;;;;;10.10;1.50;;;11.20;99.90;;;;;;6161962;23;20013;-83
2022/03/17 10:37:26;;;;;;;12.07;2.28;;;11.20;99.90;;;;;;6162901;23;20013;-82
2022/03/17 10:39:54;;;;;;;7.28;1.15;;;11.20;99.90;;;;;;6161867;23;20072;-82
2022/03/17 10:42:23;;;;;;;5.82;0.88;;;11.30;99.90;;;;;;6163239;23;20040;-83
2022/03/17 10:44:58;;;;;;;6.80;0.88;;;11.30;99.90;;;;;;6161764;23;20048;-82
2022/03/17 10:47:33;;;;;;;7.53;1.25;;;11.30;99.90;;;;;;6163774;23;20510;-82
2022/03/17 10:50:17;;;;;;;7.65;1.67;;;11.40;99.90;;;;;;6139545;23;20005;-83
2022/03/17 10:52:47;;;;;;;6.93;1.45;;;11.50;99.90;;;;;;6162878;23;20017;-83
2022/03/17 11:01:53;;;;;;;3.30;1.00;;;11.70;99.90;;;;;;6067101;23;20037;-83
2022/03/17 11:04:27;;;;;;;6.03;1.00;;;12.20;99.90;;;;;;6043516;23;20015;-84
2022/03/17 11:06:54;;;;;;;6.63;1.65;;;12.40;99.90;;;;;;6136183;23;20014;-83
2022/03/17 11:10:25;;;;;;;9.40;1.33;;;12.30;99.90;;;;;;6112414;23;20009;-81
2022/03/17 11:13:40;;;;;;;12.30;1.55;;;12.50;99.90;;;;;;6134065;23;20464;-82
2022/03/17 11:17:03;;;;;;;4.97;0.88;;;12.60;99.90;;;;;;6038380;23;20015;-82
2022/03/17 11:24:21;;;;;;;7.43;1.08;;;12.80;99.90;;;;;;6163367;23;20025;-83
2022/03/17 11:27:31;;;;;;;11.32;2.35;;;12.90;99.90;;;;;;6129029;23;20129;-83
2022/03/17 11:30:17;;;;;;;7.20;1.92;;;13.00;99.90;;;;;;6129850;23;20009;-83
2022/03/17 11:33:48;;;;;;;10.38;1.15;;;12.70;99.90;;;;;;6106574;23;20041;-82
2022/03/17 11:36:24;;;;;;;13.45;1.50;;;12.40;99.90;;;;;;6029767;23;20028;-83
2022/03/17 11:39:02;;;;;;;6.45;1.70;;;12.10;99.90;;;;;;6131621;23;20010;-83
2022/03/17 11:41:31;;;;;;;6.65;1.13;;;12.10;99.90;;;;;;6131222;23;20010;-83
2022/03/17 11:43:56;;;;;;;5.53;1.35;;;12.30;99.90;;;;;;6106813;23;20017;-83
2022/03/17 11:46:46;;;;;;;11.40;1.50;;;12.40;99.90;;;;;;6130072;23;20113;-83
2022/03/17 11:49:27;;;;;;;9.07;1.30;;;12.70;99.90;;;;;;6087027;23;20010;-83
2022/03/17 11:52:04;;;;;;;7.85;1.40;;;12.70;99.90;;;;;;6129396;23;20402;-83
2022/03/17 11:54:31;;;;;;;10.63;1.23;;;12.50;99.90;;;;;;6128324;23;20024;-83
2022/03/17 11:57:05;;;;;;;3.97;1.20;;;12.30;99.90;;;;;;6141572;23;20016;-82
2022/03/17 11:59:58;;;;;;;11.25;1.50;;;12.20;99.90;;;;;;6130140;23;20013;-81
2022/03/17 12:02:30;;;;;;;4.70;1.00;;;12.20;99.90;;;;;;6155743;23;20437;-82
2022/03/17 12:04:56;;;;;;;7.93;1.40;;;12.30;99.90;;;;;;6155897;23;20010;-83
2022/03/17 12:07:21;;;;;;;7.10;1.00;;;12.40;99.90;;;;;;6155068;23;20068;-82
2022/03/17 12:09:47;;;;;;;7.05;2.08;;;12.30;99.90;;;;;;6129701;23;20021;-82
2022/03/17 12:12:23;;;;;;;6.43;1.73;;;12.10;99.90;;;;;;6130072;23;20014;-82
2022/03/17 12:14:52;;;;;;;7.00;1.45;;;12.00;99.90;;;;;;6129816;23;20014;-84
2022/03/17 12:17:19;;;;;;;8.85;1.98;;;12.10;99.90;;;;;;6155204;23;20013;-81
2022/03/17 12:19:49;;;;;;;6.43;1.42;;;12.20;99.90;;;;;;6153813;23;20018;-82
2022/03/17 12:22:35;;;;;;;5.43;1.48;;;12.40;99.90;;;;;;6155284;23;20013;-83
2022/03/17 12:25:11;;;;;;;8.40;1.40;;;12.50;99.90;;;;;;6154478;23;20105;-84
2022/03/17 12:27:38;;;;;;;3.28;0.75;;;12.60;99.90;;;;;;6156961;23;20013;-82
2022/03/17 12:30:04;;;;;;;9.30;1.58;;;12.70;99.90;;;;;;6156754;23;20017;-82
2022/03/17 12:32:36;;;;;;;4.57;1.27;;;12.70;99.90;;;;;;6155420;23;20461;-82
2022/03/17 12:35:03;;;;;;;6.18;1.73;;;12.80;99.90;;;;;;6131056;23;20013;-82
2022/03/17 12:37:31;;;;;;;9.43;1.40;;;12.80;99.90;;;;;;6133534;23;20017;-83
2022/03/17 12:40:03;;;;;;;5.05;1.00;;;12.80;99.90;;;;;;6159303;23;20074;-83
2022/03/17 12:42:50;;;;;;;8.48;1.40;;;12.80;99.90;;;;;;6158882;23;20077;-82
2022/03/17 12:45:21;;;;;;;9.55;1.45;;;13.00;99.90;;;;;;6154833;23;20010;-83
2022/03/17 12:47:48;;;;;;;6.13;1.30;;;13.10;99.90;;;;;;6128457;23;20021;-83
2022/03/17 12:50:19;;;;;;;6.45;1.23;;;13.20;99.90;;;;;;6153551;23;20013;-84
2022/03/17 12:52:47;;;;;;;11.00;1.48;;;13.10;99.90;;;;;;6152968;23;20014;-82
2022/03/17 12:55:14;;;;;;;8.02;1.40;;;13.00;99.90;;;;;;6152726;23;20024;-83
2022/03/17 12:57:41;;;;;;;7.35;1.55;;;13.00;99.90;;;;;;6151894;23;20121;-83
2022/03/17 13:00:12;;;;;;;8.23;1.25;;;13.20;99.90;;;;;;6152730;23;20359;-82
2022/03/17 13:02:47;;;;;;;6.05;1.25;;;13.30;99.90;;;;;;6153927;23;20013;-84
2022/03/17 13:08:04;;;;;;;9.68;1.67;;;13.00;99.90;;;;;;6153035;23;20346;-83
2022/03/17 13:14:20;;;;;;;6.68;1.35;;;12.80;99.90;;;;;;6154224;23;20013;-83
2022/03/17 13:16:02;;;;;;;4.38;1.00;;;13.00;99.90;;;;;;6154890;23;20044;-83
2022/03/17 13:18:40;;;;;;;10.35;1.75;;;13.00;99.90;;;;;;6153475;23;20009;-84